sensor_id;sensor_type;location;lat;lon;timestamp;P1;durP1;ratioP1;P2;durP2;ratioP2
17818;SDS011;9034;50.284;19.310;2023-03-03T00:00:16;95.55;;;46.65;;
17818;SDS011;9034;50.284;19.310;2023-03-03T00:01:21;97.10;;;47.20;;
17818;SDS011;9034;50.284;19.310;2023-03-03T00:02:25;124.93;;;57.03;;
17818;SDS011;9034;50.284;19.310;2023-03-03T00:03:28;116.63;;;52.22;;
17818;SDS011;9034;50.284;19.310;2023-03-03T00:04:30;100.50;;;45.78;;
17818;SDS011;9034;50.284;19.310;2023-03-03T00:05:33;102.85;;;44.50;;
17818;SDS011;9034;50.284;19.310;2023-03-03T00:06:36;102.95;;;46.17;;
17818;SDS011;9034;50.284;19.310;2023-03-03T00:07:38;106.53;;;49.85;;
17818;SDS011;9034;50.284;19.310;2023-03-03T00:08:41;108.05;;;48.50;;
17818;SDS011;9034;50.284;19.310;2023-03-03T00:09:44;96.55;;;47.30;;
17818;SDS011;9034;50.284;19.310;2023-03-03T00:10:46;119.55;;;56.08;;
17818;SDS011;9034;50.284;19.310;2023-03-03T00:11:49;86.20;;;42.22;;
17818;SDS011;9034;50.284;19.310;2023-03-03T00:12:55;94.20;;;44.97;;
17818;SDS011;9034;50.284;19.310;2023-03-03T00:13:58;101.68;;;47.97;;
17818;SDS011;9034;50.284;19.310;2023-03-03T00:15:00;85.20;;;44.28;;
17818;SDS011;9034;50.284;19.310;2023-03-03T00:16:09;97.15;;;45.58;;
17818;SDS011;9034;50.284;19.310;2023-03-03T00:17:18;100.60;;;46.05;;
17818;SDS011;9034;50.284;19.310;2023-03-03T00:18:24;98.45;;;47.97;;
17818;SDS011;9034;50.284;19.310;2023-03-03T00:19:30;98.63;;;45.22;;
17818;SDS011;9034;50.284;19.310;2023-03-03T00:20:39;116.25;;;48.28;;
17818;SDS011;9034;50.284;19.310;2023-03-03T00:21:43;102.55;;;45.47;;
17818;SDS011;9034;50.284;19.310;2023-03-03T00:23:15;104.50;;;47.53;;
17818;SDS011;9034;50.284;19.310;2023-03-03T00:24:22;96.22;;;42.40;;
17818;SDS011;9034;50.284;19.310;2023-03-03T00:25:27;94.28;;;42.55;;
17818;SDS011;9034;50.284;19.310;2023-03-03T00:26:33;103.15;;;45.50;;
17818;SDS011;9034;50.284;19.310;2023-03-03T00:27:37;104.07;;;46.55;;
17818;SDS011;9034;50.284;19.310;2023-03-03T00:28:41;94.60;;;45.65;;
17818;SDS011;9034;50.284;19.310;2023-03-03T00:29:46;101.13;;;47.22;;
17818;SDS011;9034;50.284;19.310;2023-03-03T00:30:50;95.03;;;41.47;;
17818;SDS011;9034;50.284;19.310;2023-03-03T00:31:53;95.28;;;44.20;;
17818;SDS011;9034;50.284;19.310;2023-03-03T00:32:58;100.13;;;45.42;;
17818;SDS011;9034;50.284;19.310;2023-03-03T00:34:01;104.70;;;46.60;;
17818;SDS011;9034;50.284;19.310;2023-03-03T00:35:22;112.95;;;47.40;;
17818;SDS011;9034;50.284;19.310;2023-03-03T00:36:27;114.68;;;51.53;;
17818;SDS011;9034;50.284;19.310;2023-03-03T00:37:33;101.03;;;46.80;;
17818;SDS011;9034;50.284;19.310;2023-03-03T00:38:35;103.78;;;46.08;;
17818;SDS011;9034;50.284;19.310;2023-03-03T00:39:38;135.40;;;58.35;;
17818;SDS011;9034;50.284;19.310;2023-03-03T00:40:40;110.07;;;49.55;;
17818;SDS011;9034;50.284;19.310;2023-03-03T00:41:44;108.50;;;47.63;;
17818;SDS011;9034;50.284;19.310;2023-03-03T00:42:46;92.78;;;44.45;;
17818;SDS011;9034;50.284;19.310;2023-03-03T00:43:51;107.28;;;46.95;;
17818;SDS011;9034;50.284;19.310;2023-03-03T00:44:55;103.82;;;47.05;;
17818;SDS011;9034;50.284;19.310;2023-03-03T00:45:58;111.75;;;50.13;;
17818;SDS011;9034;50.284;19.310;2023-03-03T00:47:01;105.90;;;47.45;;
17818;SDS011;9034;50.284;19.310;2023-03-03T00:48:14;104.40;;;47.83;;
17818;SDS011;9034;50.284;19.310;2023-03-03T00:49:21;100.13;;;47.22;;
17818;SDS011;9034;50.284;19.310;2023-03-03T00:50:29;99.75;;;47.88;;
17818;SDS011;9034;50.284;19.310;2023-03-03T00:51:32;125.78;;;54.30;;
17818;SDS011;9034;50.284;19.310;2023-03-03T00:52:36;108.57;;;51.85;;
17818;SDS011;9034;50.284;19.310;2023-03-03T00:53:39;124.35;;;53.28;;
17818;SDS011;9034;50.284;19.310;2023-03-03T00:54:42;112.85;;;50.20;;
17818;SDS011;9034;50.284;19.310;2023-03-03T00:55:44;112.47;;;48.40;;
17818;SDS011;9034;50.284;19.310;2023-03-03T00:56:48;142.68;;;60.95;;
17818;SDS011;9034;50.284;19.310;2023-03-03T00:57:51;140.68;;;60.40;;
17818;SDS011;9034;50.284;19.310;2023-03-03T00:58:58;122.82;;;54.10;;
17818;SDS011;9034;50.284;19.310;2023-03-03T01:00:02;136.73;;;59.50;;
17818;SDS011;9034;50.284;19.310;2023-03-03T01:01:06;152.20;;;64.07;;
17818;SDS011;9034;50.284;19.310;2023-03-03T01:02:16;141.07;;;55.67;;
17818;SDS011;9034;50.284;19.310;2023-03-03T01:03:20;125.85;;;54.22;;
17818;SDS011;9034;50.284;19.310;2023-03-03T01:04:25;140.65;;;59.38;;
17818;SDS011;9034;50.284;19.310;2023-03-03T01:05:27;137.23;;;58.95;;
17818;SDS011;9034;50.284;19.310;2023-03-03T01:06:30;134.60;;;59.72;;
17818;SDS011;9034;50.284;19.310;2023-03-03T01:07:33;137.40;;;60.08;;
17818;SDS011;9034;50.284;19.310;2023-03-03T01:08:35;130.95;;;58.10;;
17818;SDS011;9034;50.284;19.310;2023-03-03T01:09:40;143.68;;;60.78;;
17818;SDS011;9034;50.284;19.310;2023-03-03T01:10:43;145.80;;;64.72;;
17818;SDS011;9034;50.284;19.310;2023-03-03T01:11:47;152.73;;;64.03;;
17818;SDS011;9034;50.284;19.310;2023-03-03T01:12:49;147.73;;;63.50;;
17818;SDS011;9034;50.284;19.310;2023-03-03T01:13:52;151.00;;;61.45;;
17818;SDS011;9034;50.284;19.310;2023-03-03T01:14:54;137.63;;;60.42;;
17818;SDS011;9034;50.284;19.310;2023-03-03T01:15:58;151.20;;;60.63;;
17818;SDS011;9034;50.284;19.310;2023-03-03T01:17:01;130.10;;;56.63;;
17818;SDS011;9034;50.284;19.310;2023-03-03T01:18:03;136.90;;;55.70;;
17818;SDS011;9034;50.284;19.310;2023-03-03T01:19:08;131.32;;;54.67;;
17818;SDS011;9034;50.284;19.310;2023-03-03T01:20:10;134.30;;;60.28;;
17818;SDS011;9034;50.284;19.310;2023-03-03T01:21:14;131.10;;;56.75;;
17818;SDS011;9034;50.284;19.310;2023-03-03T01:22:17;135.90;;;58.55;;
17818;SDS011;9034;50.284;19.310;2023-03-03T01:23:19;122.50;;;52.35;;
17818;SDS011;9034;50.284;19.310;2023-03-03T01:24:22;120.15;;;51.63;;
17818;SDS011;9034;50.284;19.310;2023-03-03T01:25:24;111.35;;;52.10;;
17818;SDS011;9034;50.284;19.310;2023-03-03T01:26:28;114.55;;;49.92;;
17818;SDS011;9034;50.284;19.310;2023-03-03T01:27:32;105.00;;;47.95;;
17818;SDS011;9034;50.284;19.310;2023-03-03T01:28:36;123.28;;;53.75;;
17818;SDS011;9034;50.284;19.310;2023-03-03T01:29:38;113.22;;;50.45;;
17818;SDS011;9034;50.284;19.310;2023-03-03T01:30:40;118.50;;;53.17;;
17818;SDS011;9034;50.284;19.310;2023-03-03T01:31:42;110.30;;;51.65;;
17818;SDS011;9034;50.284;19.310;2023-03-03T01:32:45;129.70;;;57.60;;
17818;SDS011;9034;50.284;19.310;2023-03-03T01:33:47;128.75;;;56.03;;
17818;SDS011;9034;50.284;19.310;2023-03-03T01:34:52;121.30;;;51.58;;
17818;SDS011;9034;50.284;19.310;2023-03-03T01:35:54;111.45;;;49.85;;
17818;SDS011;9034;50.284;19.310;2023-03-03T01:36:57;127.72;;;57.05;;
17818;SDS011;9034;50.284;19.310;2023-03-03T01:38:01;124.47;;;56.70;;
17818;SDS011;9034;50.284;19.310;2023-03-03T01:39:04;124.45;;;52.22;;
17818;SDS011;9034;50.284;19.310;2023-03-03T01:40:10;124.40;;;53.78;;
17818;SDS011;9034;50.284;19.310;2023-03-03T01:41:15;116.47;;;53.28;;
17818;SDS011;9034;50.284;19.310;2023-03-03T01:42:18;116.53;;;52.17;;
17818;SDS011;9034;50.284;19.310;2023-03-03T01:43:21;116.68;;;50.97;;
17818;SDS011;9034;50.284;19.310;2023-03-03T01:44:23;114.03;;;52.58;;
17818;SDS011;9034;50.284;19.310;2023-03-03T01:45:27;118.72;;;51.80;;
17818;SDS011;9034;50.284;19.310;2023-03-03T01:46:32;114.97;;;48.95;;
17818;SDS011;9034;50.284;19.310;2023-03-03T01:47:44;110.28;;;50.50;;
17818;SDS011;9034;50.284;19.310;2023-03-03T01:48:49;113.65;;;51.90;;
17818;SDS011;9034;50.284;19.310;2023-03-03T01:49:55;112.68;;;51.28;;
17818;SDS011;9034;50.284;19.310;2023-03-03T01:51:01;116.70;;;50.03;;
17818;SDS011;9034;50.284;19.310;2023-03-03T01:52:09;108.70;;;49.28;;
17818;SDS011;9034;50.284;19.310;2023-03-03T01:53:16;101.75;;;45.15;;
17818;SDS011;9034;50.284;19.310;2023-03-03T01:54:21;99.97;;;44.95;;
17818;SDS011;9034;50.284;19.310;2023-03-03T01:55:27;102.88;;;49.17;;
17818;SDS011;9034;50.284;19.310;2023-03-03T01:56:32;98.72;;;45.25;;
17818;SDS011;9034;50.284;19.310;2023-03-03T01:57:36;105.50;;;46.13;;
17818;SDS011;9034;50.284;19.310;2023-03-03T01:58:40;105.93;;;49.40;;
17818;SDS011;9034;50.284;19.310;2023-03-03T01:59:45;110.32;;;47.65;;
17818;SDS011;9034;50.284;19.310;2023-03-03T02:00:49;102.57;;;47.90;;
17818;SDS011;9034;50.284;19.310;2023-03-03T02:01:53;101.13;;;45.50;;
17818;SDS011;9034;50.284;19.310;2023-03-03T02:02:55;106.18;;;47.03;;
17818;SDS011;9034;50.284;19.310;2023-03-03T02:03:58;99.75;;;44.05;;
17818;SDS011;9034;50.284;19.310;2023-03-03T02:05:01;103.32;;;47.33;;
17818;SDS011;9034;50.284;19.310;2023-03-03T02:06:05;96.25;;;45.50;;
17818;SDS011;9034;50.284;19.310;2023-03-03T02:07:09;98.88;;;47.13;;
17818;SDS011;9034;50.284;19.310;2023-03-03T02:08:13;107.30;;;47.70;;
17818;SDS011;9034;50.284;19.310;2023-03-03T02:09:17;111.45;;;49.30;;
17818;SDS011;9034;50.284;19.310;2023-03-03T02:10:24;97.00;;;42.60;;
17818;SDS011;9034;50.284;19.310;2023-03-03T02:11:27;101.72;;;45.33;;
17818;SDS011;9034;50.284;19.310;2023-03-03T02:12:33;98.07;;;46.22;;
17818;SDS011;9034;50.284;19.310;2023-03-03T02:13:37;114.78;;;51.30;;
17818;SDS011;9034;50.284;19.310;2023-03-03T02:14:39;105.38;;;47.97;;
17818;SDS011;9034;50.284;19.310;2023-03-03T02:15:41;114.95;;;48.80;;
17818;SDS011;9034;50.284;19.310;2023-03-03T02:16:44;116.18;;;51.75;;
17818;SDS011;9034;50.284;19.310;2023-03-03T02:17:47;99.72;;;46.00;;
17818;SDS011;9034;50.284;19.310;2023-03-03T02:18:51;110.78;;;48.60;;
17818;SDS011;9034;50.284;19.310;2023-03-03T02:19:56;103.10;;;49.08;;
17818;SDS011;9034;50.284;19.310;2023-03-03T02:21:05;108.68;;;47.40;;
17818;SDS011;9034;50.284;19.310;2023-03-03T02:22:08;119.55;;;50.00;;
17818;SDS011;9034;50.284;19.310;2023-03-03T02:23:15;108.15;;;48.60;;
17818;SDS011;9034;50.284;19.310;2023-03-03T02:24:22;118.82;;;50.97;;
17818;SDS011;9034;50.284;19.310;2023-03-03T02:25:29;114.45;;;49.40;;
17818;SDS011;9034;50.284;19.310;2023-03-03T02:26:35;114.95;;;49.70;;
17818;SDS011;9034;50.284;19.310;2023-03-03T02:27:41;101.88;;;45.83;;
17818;SDS011;9034;50.284;19.310;2023-03-03T02:28:44;104.43;;;45.50;;
17818;SDS011;9034;50.284;19.310;2023-03-03T02:29:46;103.25;;;46.85;;
17818;SDS011;9034;50.284;19.310;2023-03-03T02:30:48;108.55;;;46.15;;
17818;SDS011;9034;50.284;19.310;2023-03-03T02:31:51;103.43;;;47.35;;
17818;SDS011;9034;50.284;19.310;2023-03-03T02:32:55;105.32;;;46.75;;
17818;SDS011;9034;50.284;19.310;2023-03-03T02:33:58;96.13;;;42.05;;
17818;SDS011;9034;50.284;19.310;2023-03-03T02:35:00;105.88;;;45.30;;
17818;SDS011;9034;50.284;19.310;2023-03-03T02:36:03;114.75;;;46.33;;
17818;SDS011;9034;50.284;19.310;2023-03-03T02:37:05;100.40;;;44.15;;
17818;SDS011;9034;50.284;19.310;2023-03-03T02:38:13;94.85;;;42.22;;
17818;SDS011;9034;50.284;19.310;2023-03-03T02:39:19;97.20;;;44.35;;
17818;SDS011;9034;50.284;19.310;2023-03-03T02:40:23;91.55;;;42.20;;
17818;SDS011;9034;50.284;19.310;2023-03-03T02:41:28;95.30;;;41.53;;
17818;SDS011;9034;50.284;19.310;2023-03-03T02:42:36;109.68;;;46.53;;
17818;SDS011;9034;50.284;19.310;2023-03-03T02:43:40;114.90;;;49.13;;
17818;SDS011;9034;50.284;19.310;2023-03-03T02:44:47;99.18;;;43.72;;
17818;SDS011;9034;50.284;19.310;2023-03-03T02:45:49;94.85;;;43.38;;
17818;SDS011;9034;50.284;19.310;2023-03-03T02:46:52;98.05;;;45.38;;
17818;SDS011;9034;50.284;19.310;2023-03-03T02:47:55;110.18;;;50.40;;
17818;SDS011;9034;50.284;19.310;2023-03-03T02:48:58;113.25;;;49.42;;
17818;SDS011;9034;50.284;19.310;2023-03-03T02:49:59;109.75;;;48.42;;
17818;SDS011;9034;50.284;19.310;2023-03-03T02:51:02;108.38;;;49.33;;
17818;SDS011;9034;50.284;19.310;2023-03-03T02:52:05;123.40;;;49.67;;
17818;SDS011;9034;50.284;19.310;2023-03-03T02:53:10;109.65;;;51.28;;
17818;SDS011;9034;50.284;19.310;2023-03-03T02:54:13;104.00;;;47.50;;
17818;SDS011;9034;50.284;19.310;2023-03-03T02:55:17;117.47;;;49.75;;
17818;SDS011;9034;50.284;19.310;2023-03-03T02:56:19;99.75;;;44.67;;
17818;SDS011;9034;50.284;19.310;2023-03-03T02:57:22;103.18;;;46.72;;
17818;SDS011;9034;50.284;19.310;2023-03-03T02:58:25;106.57;;;45.22;;
17818;SDS011;9034;50.284;19.310;2023-03-03T02:59:28;95.13;;;45.10;;
17818;SDS011;9034;50.284;19.310;2023-03-03T03:00:36;109.05;;;45.78;;
17818;SDS011;9034;50.284;19.310;2023-03-03T03:01:38;115.32;;;50.58;;
17818;SDS011;9034;50.284;19.310;2023-03-03T03:02:45;108.72;;;48.35;;
17818;SDS011;9034;50.284;19.310;2023-03-03T03:03:47;109.15;;;48.08;;
17818;SDS011;9034;50.284;19.310;2023-03-03T03:04:53;110.32;;;46.60;;
17818;SDS011;9034;50.284;19.310;2023-03-03T03:05:57;111.68;;;46.80;;
17818;SDS011;9034;50.284;19.310;2023-03-03T03:07:00;106.00;;;48.60;;
17818;SDS011;9034;50.284;19.310;2023-03-03T03:08:05;105.50;;;47.55;;
17818;SDS011;9034;50.284;19.310;2023-03-03T03:09:09;98.25;;;47.15;;
17818;SDS011;9034;50.284;19.310;2023-03-03T03:10:11;103.82;;;47.05;;
17818;SDS011;9034;50.284;19.310;2023-03-03T03:11:15;108.20;;;48.65;;
17818;SDS011;9034;50.284;19.310;2023-03-03T03:12:17;110.82;;;45.58;;
17818;SDS011;9034;50.284;19.310;2023-03-03T03:13:25;97.88;;;45.97;;
17818;SDS011;9034;50.284;19.310;2023-03-03T03:14:27;101.57;;;44.03;;
17818;SDS011;9034;50.284;19.310;2023-03-03T03:15:30;105.00;;;46.63;;
17818;SDS011;9034;50.284;19.310;2023-03-03T03:16:32;109.22;;;46.50;;
17818;SDS011;9034;50.284;19.310;2023-03-03T03:17:36;106.72;;;47.05;;
17818;SDS011;9034;50.284;19.310;2023-03-03T03:18:39;98.85;;;43.42;;
17818;SDS011;9034;50.284;19.310;2023-03-03T03:19:42;108.47;;;44.92;;
17818;SDS011;9034;50.284;19.310;2023-03-03T03:20:44;91.13;;;43.42;;
17818;SDS011;9034;50.284;19.310;2023-03-03T03:21:49;99.05;;;43.38;;
17818;SDS011;9034;50.284;19.310;2023-03-03T03:22:51;90.85;;;42.63;;
17818;SDS011;9034;50.284;19.310;2023-03-03T03:23:54;95.38;;;43.05;;
17818;SDS011;9034;50.284;19.310;2023-03-03T03:24:57;97.88;;;44.10;;
17818;SDS011;9034;50.284;19.310;2023-03-03T03:25:59;89.13;;;42.22;;
17818;SDS011;9034;50.284;19.310;2023-03-03T03:27:03;100.72;;;45.65;;
17818;SDS011;9034;50.284;19.310;2023-03-03T03:28:06;106.82;;;44.67;;
17818;SDS011;9034;50.284;19.310;2023-03-03T03:29:10;117.30;;;47.72;;
17818;SDS011;9034;50.284;19.310;2023-03-03T03:30:13;100.63;;;45.45;;
17818;SDS011;9034;50.284;19.310;2023-03-03T03:31:17;106.78;;;44.97;;
17818;SDS011;9034;50.284;19.310;2023-03-03T03:32:21;94.72;;;42.47;;
17818;SDS011;9034;50.284;19.310;2023-03-03T03:33:24;113.45;;;48.47;;
17818;SDS011;9034;50.284;19.310;2023-03-03T03:34:29;108.63;;;49.00;;
17818;SDS011;9034;50.284;19.310;2023-03-03T03:35:32;127.68;;;52.97;;
17818;SDS011;9034;50.284;19.310;2023-03-03T03:36:34;112.35;;;49.00;;
17818;SDS011;9034;50.284;19.310;2023-03-03T03:37:40;119.88;;;47.78;;
17818;SDS011;9034;50.284;19.310;2023-03-03T03:38:42;109.07;;;47.88;;
17818;SDS011;9034;50.284;19.310;2023-03-03T03:39:46;115.90;;;46.47;;
17818;SDS011;9034;50.284;19.310;2023-03-03T03:40:47;108.50;;;47.78;;
17818;SDS011;9034;50.284;19.310;2023-03-03T03:41:51;107.13;;;48.80;;
17818;SDS011;9034;50.284;19.310;2023-03-03T03:42:53;118.60;;;50.97;;
17818;SDS011;9034;50.284;19.310;2023-03-03T03:43:57;123.93;;;51.60;;
17818;SDS011;9034;50.284;19.310;2023-03-03T03:45:00;118.88;;;49.95;;
17818;SDS011;9034;50.284;19.310;2023-03-03T03:46:03;121.15;;;50.88;;
17818;SDS011;9034;50.284;19.310;2023-03-03T03:47:06;125.43;;;53.30;;
17818;SDS011;9034;50.284;19.310;2023-03-03T03:48:10;141.27;;;53.60;;
17818;SDS011;9034;50.284;19.310;2023-03-03T03:49:13;142.27;;;57.38;;
17818;SDS011;9034;50.284;19.310;2023-03-03T03:50:16;142.27;;;55.10;;
17818;SDS011;9034;50.284;19.310;2023-03-03T03:51:18;134.82;;;52.80;;
17818;SDS011;9034;50.284;19.310;2023-03-03T03:52:21;125.43;;;50.97;;
17818;SDS011;9034;50.284;19.310;2023-03-03T03:53:24;129.45;;;51.90;;
17818;SDS011;9034;50.284;19.310;2023-03-03T03:54:26;120.82;;;48.70;;
17818;SDS011;9034;50.284;19.310;2023-03-03T03:55:28;116.80;;;49.15;;
17818;SDS011;9034;50.284;19.310;2023-03-03T03:56:31;139.07;;;55.80;;
17818;SDS011;9034;50.284;19.310;2023-03-03T03:57:35;124.50;;;51.60;;
17818;SDS011;9034;50.284;19.310;2023-03-03T03:58:39;131.98;;;53.15;;
17818;SDS011;9034;50.284;19.310;2023-03-03T03:59:43;115.03;;;49.00;;
17818;SDS011;9034;50.284;19.310;2023-03-03T04:00:47;133.07;;;52.20;;
17818;SDS011;9034;50.284;19.310;2023-03-03T04:01:51;124.70;;;50.50;;
17818;SDS011;9034;50.284;19.310;2023-03-03T04:02:55;115.25;;;47.47;;
17818;SDS011;9034;50.284;19.310;2023-03-03T04:03:58;116.72;;;48.63;;
17818;SDS011;9034;50.284;19.310;2023-03-03T04:05:01;114.78;;;48.75;;
17818;SDS011;9034;50.284;19.310;2023-03-03T04:06:03;112.57;;;49.33;;
17818;SDS011;9034;50.284;19.310;2023-03-03T04:07:07;121.03;;;48.13;;
17818;SDS011;9034;50.284;19.310;2023-03-03T04:08:12;114.88;;;49.30;;
17818;SDS011;9034;50.284;19.310;2023-03-03T04:09:16;140.88;;;53.95;;
17818;SDS011;9034;50.284;19.310;2023-03-03T04:10:19;132.32;;;52.55;;
17818;SDS011;9034;50.284;19.310;2023-03-03T04:11:22;133.80;;;52.33;;
17818;SDS011;9034;50.284;19.310;2023-03-03T04:12:24;127.93;;;51.53;;
17818;SDS011;9034;50.284;19.310;2023-03-03T04:13:27;129.00;;;51.10;;
17818;SDS011;9034;50.284;19.310;2023-03-03T04:14:33;113.38;;;48.58;;
17818;SDS011;9034;50.284;19.310;2023-03-03T04:15:36;122.80;;;50.47;;
17818;SDS011;9034;50.284;19.310;2023-03-03T04:16:40;125.57;;;51.05;;
17818;SDS011;9034;50.284;19.310;2023-03-03T04:17:44;106.97;;;47.35;;
17818;SDS011;9034;50.284;19.310;2023-03-03T04:18:46;112.88;;;49.47;;
17818;SDS011;9034;50.284;19.310;2023-03-03T04:19:51;115.15;;;47.05;;
17818;SDS011;9034;50.284;19.310;2023-03-03T04:20:53;111.28;;;46.42;;
17818;SDS011;9034;50.284;19.310;2023-03-03T04:21:57;112.45;;;47.25;;
17818;SDS011;9034;50.284;19.310;2023-03-03T04:22:59;117.85;;;48.65;;
17818;SDS011;9034;50.284;19.310;2023-03-03T04:24:04;114.53;;;43.95;;
17818;SDS011;9034;50.284;19.310;2023-03-03T04:25:07;101.47;;;45.30;;
17818;SDS011;9034;50.284;19.310;2023-03-03T04:26:13;96.55;;;42.78;;
17818;SDS011;9034;50.284;19.310;2023-03-03T04:27:17;102.45;;;43.33;;
17818;SDS011;9034;50.284;19.310;2023-03-03T04:28:20;101.47;;;45.45;;
17818;SDS011;9034;50.284;19.310;2023-03-03T04:29:25;106.45;;;45.50;;
17818;SDS011;9034;50.284;19.310;2023-03-03T04:30:28;108.60;;;43.70;;
17818;SDS011;9034;50.284;19.310;2023-03-03T04:31:31;98.50;;;43.92;;
17818;SDS011;9034;50.284;19.310;2023-03-03T04:32:36;88.72;;;41.30;;
17818;SDS011;9034;50.284;19.310;2023-03-03T04:33:41;106.68;;;45.13;;
17818;SDS011;9034;50.284;19.310;2023-03-03T04:34:44;95.45;;;40.22;;
17818;SDS011;9034;50.284;19.310;2023-03-03T04:35:53;101.40;;;44.63;;
17818;SDS011;9034;50.284;19.310;2023-03-03T04:36:56;124.95;;;51.35;;
17818;SDS011;9034;50.284;19.310;2023-03-03T04:37:59;121.53;;;52.28;;
17818;SDS011;9034;50.284;19.310;2023-03-03T04:39:01;134.05;;;50.35;;
17818;SDS011;9034;50.284;19.310;2023-03-03T04:40:05;120.13;;;49.10;;
17818;SDS011;9034;50.284;19.310;2023-03-03T04:41:08;118.38;;;50.95;;
17818;SDS011;9034;50.284;19.310;2023-03-03T04:42:12;119.20;;;51.35;;
17818;SDS011;9034;50.284;19.310;2023-03-03T04:43:14;116.93;;;48.72;;
17818;SDS011;9034;50.284;19.310;2023-03-03T04:44:17;122.22;;;48.38;;
17818;SDS011;9034;50.284;19.310;2023-03-03T04:45:19;125.65;;;52.47;;
17818;SDS011;9034;50.284;19.310;2023-03-03T04:46:22;125.93;;;49.33;;
17818;SDS011;9034;50.284;19.310;2023-03-03T04:47:25;111.88;;;48.42;;
17818;SDS011;9034;50.284;19.310;2023-03-03T04:48:30;110.93;;;46.42;;
17818;SDS011;9034;50.284;19.310;2023-03-03T04:49:33;118.88;;;47.33;;
17818;SDS011;9034;50.284;19.310;2023-03-03T04:50:35;121.82;;;48.20;;
17818;SDS011;9034;50.284;19.310;2023-03-03T04:51:38;112.25;;;46.75;;
17818;SDS011;9034;50.284;19.310;2023-03-03T04:52:41;109.53;;;47.80;;
17818;SDS011;9034;50.284;19.310;2023-03-03T04:53:43;104.63;;;44.78;;
17818;SDS011;9034;50.284;19.310;2023-03-03T04:54:47;110.13;;;47.35;;
17818;SDS011;9034;50.284;19.310;2023-03-03T04:55:50;119.93;;;48.47;;
17818;SDS011;9034;50.284;19.310;2023-03-03T04:56:54;125.28;;;49.97;;
17818;SDS011;9034;50.284;19.310;2023-03-03T04:57:55;120.32;;;50.42;;
17818;SDS011;9034;50.284;19.310;2023-03-03T04:58:59;123.32;;;47.75;;
17818;SDS011;9034;50.284;19.310;2023-03-03T05:00:02;134.23;;;51.95;;
17818;SDS011;9034;50.284;19.310;2023-03-03T05:01:09;122.22;;;49.67;;
17818;SDS011;9034;50.284;19.310;2023-03-03T05:02:13;124.20;;;46.00;;
17818;SDS011;9034;50.284;19.310;2023-03-03T05:03:16;123.82;;;53.75;;
17818;SDS011;9034;50.284;19.310;2023-03-03T05:04:19;123.45;;;51.83;;
17818;SDS011;9034;50.284;19.310;2023-03-03T05:05:22;130.02;;;52.40;;
17818;SDS011;9034;50.284;19.310;2023-03-03T05:06:24;130.50;;;53.08;;
17818;SDS011;9034;50.284;19.310;2023-03-03T05:07:27;143.98;;;54.25;;
17818;SDS011;9034;50.284;19.310;2023-03-03T05:08:28;118.45;;;51.78;;
17818;SDS011;9034;50.284;19.310;2023-03-03T05:09:31;196.25;;;68.65;;
17818;SDS011;9034;50.284;19.310;2023-03-03T05:10:33;225.77;;;80.50;;
17818;SDS011;9034;50.284;19.310;2023-03-03T05:11:36;198.63;;;77.93;;
17818;SDS011;9034;50.284;19.310;2023-03-03T05:12:38;182.90;;;71.65;;
17818;SDS011;9034;50.284;19.310;2023-03-03T05:13:41;141.38;;;62.38;;
17818;SDS011;9034;50.284;19.310;2023-03-03T05:14:43;145.15;;;59.75;;
17818;SDS011;9034;50.284;19.310;2023-03-03T05:15:48;145.88;;;58.67;;
17818;SDS011;9034;50.284;19.310;2023-03-03T05:16:50;147.82;;;59.85;;
17818;SDS011;9034;50.284;19.310;2023-03-03T05:17:53;142.48;;;54.47;;
17818;SDS011;9034;50.284;19.310;2023-03-03T05:18:56;159.48;;;61.85;;
17818;SDS011;9034;50.284;19.310;2023-03-03T05:20:00;144.23;;;61.03;;
17818;SDS011;9034;50.284;19.310;2023-03-03T05:21:03;194.75;;;77.97;;
17818;SDS011;9034;50.284;19.310;2023-03-03T05:22:06;186.32;;;75.28;;
17818;SDS011;9034;50.284;19.310;2023-03-03T05:23:08;154.15;;;64.35;;
17818;SDS011;9034;50.284;19.310;2023-03-03T05:24:12;153.55;;;60.90;;
17818;SDS011;9034;50.284;19.310;2023-03-03T05:25:15;159.90;;;68.20;;
17818;SDS011;9034;50.284;19.310;2023-03-03T05:26:17;183.48;;;74.20;;
17818;SDS011;9034;50.284;19.310;2023-03-03T05:27:20;182.80;;;74.63;;
17818;SDS011;9034;50.284;19.310;2023-03-03T05:28:23;159.30;;;66.30;;
17818;SDS011;9034;50.284;19.310;2023-03-03T05:29:25;156.30;;;67.10;;
17818;SDS011;9034;50.284;19.310;2023-03-03T05:30:29;150.63;;;65.93;;
17818;SDS011;9034;50.284;19.310;2023-03-03T05:31:31;161.43;;;67.55;;
17818;SDS011;9034;50.284;19.310;2023-03-03T05:32:33;172.73;;;70.38;;
17818;SDS011;9034;50.284;19.310;2023-03-03T05:33:37;156.73;;;68.82;;
17818;SDS011;9034;50.284;19.310;2023-03-03T05:34:39;156.02;;;67.05;;
17818;SDS011;9034;50.284;19.310;2023-03-03T05:35:43;158.88;;;65.68;;
17818;SDS011;9034;50.284;19.310;2023-03-03T05:36:46;150.27;;;65.18;;
17818;SDS011;9034;50.284;19.310;2023-03-03T05:37:48;162.82;;;66.05;;
17818;SDS011;9034;50.284;19.310;2023-03-03T05:38:51;142.32;;;62.05;;
17818;SDS011;9034;50.284;19.310;2023-03-03T05:39:54;137.90;;;60.50;;
17818;SDS011;9034;50.284;19.310;2023-03-03T05:40:55;132.63;;;60.20;;
17818;SDS011;9034;50.284;19.310;2023-03-03T05:41:58;147.50;;;62.63;;
17818;SDS011;9034;50.284;19.310;2023-03-03T05:43:01;137.45;;;60.88;;
17818;SDS011;9034;50.284;19.310;2023-03-03T05:44:04;146.02;;;59.70;;
17818;SDS011;9034;50.284;19.310;2023-03-03T05:45:07;141.80;;;57.05;;
17818;SDS011;9034;50.284;19.310;2023-03-03T05:46:09;175.10;;;60.38;;
17818;SDS011;9034;50.284;19.310;2023-03-03T05:47:13;158.65;;;62.83;;
17818;SDS011;9034;50.284;19.310;2023-03-03T05:48:15;156.43;;;60.75;;
17818;SDS011;9034;50.284;19.310;2023-03-03T05:49:17;148.55;;;62.65;;
17818;SDS011;9034;50.284;19.310;2023-03-03T05:50:22;143.30;;;61.13;;
17818;SDS011;9034;50.284;19.310;2023-03-03T05:51:26;177.98;;;60.45;;
17818;SDS011;9034;50.284;19.310;2023-03-03T05:52:30;142.02;;;60.63;;
17818;SDS011;9034;50.284;19.310;2023-03-03T05:53:32;127.72;;;58.83;;
17818;SDS011;9034;50.284;19.310;2023-03-03T05:54:35;158.23;;;60.85;;
17818;SDS011;9034;50.284;19.310;2023-03-03T05:55:37;143.98;;;60.65;;
17818;SDS011;9034;50.284;19.310;2023-03-03T05:56:39;127.97;;;57.08;;
17818;SDS011;9034;50.284;19.310;2023-03-03T05:57:41;126.85;;;58.50;;
17818;SDS011;9034;50.284;19.310;2023-03-03T05:58:44;127.95;;;57.58;;
17818;SDS011;9034;50.284;19.310;2023-03-03T05:59:46;120.60;;;56.55;;
17818;SDS011;9034;50.284;19.310;2023-03-03T06:00:49;119.97;;;57.83;;
17818;SDS011;9034;50.284;19.310;2023-03-03T06:01:51;132.85;;;58.65;;
17818;SDS011;9034;50.284;19.310;2023-03-03T06:02:54;120.60;;;55.85;;
17818;SDS011;9034;50.284;19.310;2023-03-03T06:03:55;113.90;;;56.30;;
17818;SDS011;9034;50.284;19.310;2023-03-03T06:04:59;112.50;;;57.05;;
17818;SDS011;9034;50.284;19.310;2023-03-03T06:06:00;115.05;;;58.55;;
17818;SDS011;9034;50.284;19.310;2023-03-03T06:07:05;114.45;;;59.13;;
17818;SDS011;9034;50.284;19.310;2023-03-03T06:08:07;118.38;;;59.50;;